Time;durP1;ratioP1;P1;durP2;ratioP2;P2;SDS_P1;SDS_P2;PMS_P1;PMS_P2;Temp;Humidity;BMP_temperature;BMP_pressure;BME280_temperature;BME280_humidity;BME280_pressure;Samples;Min_cycle;Max_cycle;Signal;HPM_P1;HPM_P2
2023/12/21 00:01:35;;;;;;;;;17.67;17.67;;;;;3.68;100.00;99218.56;6280738;20;3548195;-47
2023/12/21 00:04:04;;;;;;;;;16.00;16.00;;;;;3.73;100.00;99198.84;6310291;20;3562764;-48
2023/12/21 00:06:33;;;;;;;;;22.67;19.67;;;;;4.03;100.00;99201.19;6310633;20;3559736;-45
2023/12/21 00:09:06;;;;;;;;;15.80;13.60;;;;;3.74;100.00;99195.28;6334667;20;2808642;-44
2023/12/21 00:11:34;;;;;;;;;18.67;18.33;;;;;3.93;100.00;99200.69;6282022;20;3558595;-47
2023/12/21 00:14:02;;;;;;;;;22.00;15.50;;;;;3.93;100.00;99199.84;6283411;20;2827488;-46
2023/12/21 00:16:31;;;;;;;;;15.67;14.00;;;;;4.03;100.00;99201.19;6282448;20;3541002;-45
2023/12/21 00:19:01;;;;;;;;;15.67;14.00;;;;;4.09;100.00;99194.72;6318183;20;3552330;-44
2023/12/21 00:21:30;;;;;;;;;17.67;15.00;;;;;4.09;100.00;99195.59;6316130;20;3555506;-46
2023/12/21 00:23:58;;;;;;;;;18.00;18.00;;;;;4.21;100.00;99201.28;6317087;20;3550260;-44
2023/12/21 00:26:26;;;;;;;;;15.50;14.00;;;;;4.15;100.00;99189.16;6314817;20;2797158;-45
2023/12/21 00:28:55;;;;;;;;;15.33;14.00;;;;;4.02;100.00;99186.16;6285492;20;2804572;-44
2023/12/21 00:31:23;;;;;;;;;16.00;11.00;;;;;4.10;100.00;99180.50;6317697;20;2804501;-44
2023/12/21 00:33:51;;;;;;;;;9.00;9.00;;;;;4.14;100.00;99185.63;6317692;20;2742977;-44
2023/12/21 00:36:20;;;;;;;;;11.00;11.00;;;;;4.29;100.00;99185.88;6315784;20;2782645;-46
2023/12/21 00:38:47;;;;;;;;;10.00;9.50;;;;;4.30;100.00;99190.28;6288751;20;2762898;-46
2023/12/21 00:41:15;;;;;;;;;10.00;10.00;;;;;4.34;100.00;99194.50;6280866;20;2785680;-45
2023/12/21 00:43:45;;;;;;;;;13.80;10.40;;;;;4.24;100.00;99190.53;6311675;20;2781523;-45
2023/12/21 00:46:14;;;;;;;;;15.40;10.20;;;;;4.20;100.00;99202.22;6309380;20;2781625;-46
2023/12/21 00:48:43;;;;;;;;;9.50;9.50;;;;;4.20;100.00;99189.81;6305364;20;1819160;-45
2023/12/21 00:51:11;;;;;;;;;12.00;9.00;;;;;4.31;100.00;99189.34;6314721;20;2762803;-45
2023/12/21 00:53:42;;;;;;;;;12.43;10.43;;;;;4.32;100.00;99191.09;6326178;20;1808622;-45
2023/12/21 00:56:10;;;;;;;;;10.50;10.00;;;;;4.41;100.00;99185.34;6315742;20;2769073;-47
2023/12/21 00:58:38;;;;;;;;;12.00;10.00;;;;;4.38;100.00;99182.81;6288120;20;2790892;-44
2023/12/21 01:01:06;;;;;;;;;11.00;11.00;;;;;4.58;100.00;99173.94;6285273;20;2775360;-46
2023/12/21 01:03:34;;;;;;;;;6.75;6.00;;;;;4.37;100.00;99176.66;6303126;20;1817025;-47
2023/12/21 01:06:04;;;;;;;;;10.80;10.00;;;;;4.35;100.00;99185.63;6342291;20;2757757;-47
2023/12/21 01:08:35;;;;;;;;;7.83;7.33;;;;;4.33;100.00;99182.16;6326704;20;1808585;-46
2023/12/21 01:11:02;;;;;;;;;11.50;10.50;;;;;4.48;100.00;99181.50;6285590;20;2785719;-46
2023/12/21 01:13:32;;;;;;;;;9.00;9.00;;;;;4.52;100.00;99177.75;6283905;20;2743064;-45
2023/12/21 01:16:01;;;;;;;;;10.00;7.75;;;;;4.54;100.00;99180.34;6302297;20;1814921;-45
2023/12/21 01:18:28;;;;;;;;;8.50;7.00;;;;;4.47;100.00;99174.44;6317437;20;2758731;-45
2023/12/21 01:20:56;;;;;;;;;8.00;8.00;;;;;4.42;100.00;99176.44;6313519;20;2745131;-45
2023/12/21 01:23:26;;;;;;;;;12.80;8.60;;;;;4.42;100.00;99167.59;6341054;20;2754419;-45
2023/12/21 01:25:55;;;;;;;;;3.00;3.00;;;;;4.18;100.00;99173.91;6333146;20;1818016;-45
2023/12/21 01:28:23;;;;;;;;;6.25;6.25;;;;;4.62;100.00;99168.41;6329945;20;1812757;-47
2023/12/21 01:30:51;;;;;;;;;6.50;6.50;;;;;4.66;100.00;99169.16;6317378;20;2734896;-47
2023/12/21 01:33:19;;;;;;;;;8.00;5.00;;;;;4.60;100.00;99158.78;6314230;20;3472736;-45
2023/12/21 01:35:47;;;;;;;;;5.00;5.00;;;;;4.61;99.72;99153.41;6285616;20;2753530;-46
2023/12/21 01:38:16;;;;;;;;;6.25;6.00;;;;;4.47;100.00;99158.47;6302351;20;1825448;-46
2023/12/21 01:40:45;;;;;;;;;7.50;5.25;;;;;4.57;99.66;99149.16;6331344;20;1823297;-47
2023/12/21 01:43:12;;;;;;;;;6.00;6.00;;;;;4.54;99.85;99151.97;6318919;20;2745080;-47
2023/12/21 01:45:40;;;;;;;;;5.00;5.00;;;;;4.49;99.81;99145.13;6318464;20;2750309;-45
2023/12/21 01:48:10;;;;;;;;;6.50;5.00;;;;;4.52;99.55;99144.97;6286113;20;2739957;-46
2023/12/21 01:50:39;;;;;;;;;5.50;5.00;;;;;4.53;99.62;99144.94;6330707;20;1825394;-46
2023/12/21 01:53:13;;;;;;;;;7.75;6.50;;;;;4.36;100.00;99129.72;6331390;20;1823323;-45
2023/12/21 01:55:43;;;;;;;;;6.50;5.00;;;;;4.56;99.22;99136.81;6333483;20;1810684;-45
2023/12/21 01:58:12;;;;;;;;;5.00;5.00;;;;;4.57;98.99;99127.88;6334588;20;1818588;-47
2023/12/21 02:00:40;;;;;;;;;10.00;7.00;;;;;4.52;98.65;99123.72;6315878;20;2760828;-46
2023/12/21 02:03:09;;;;;;;;;6.25;5.00;;;;;4.46;98.93;99113.38;6301997;20;1818094;-46
2023/12/21 02:05:37;;;;;;;;;5.25;5.25;;;;;4.64;97.54;99109.00;6332572;20;1820188;-44
2023/12/21 02:08:06;;;;;;;;;6.75;6.00;;;;;4.55;97.85;99103.16;6332275;20;1819157;-45
2023/12/21 02:10:35;;;;;;;;;6.00;1.67;;;;;4.58;97.47;99108.38;6315642;20;3472161;-47
2023/12/21 02:13:04;;;;;;;;;5.50;3.50;;;;;4.62;97.31;99093.97;6300899;20;1811831;-45
2023/12/21 02:15:33;;;;;;;;;7.00;3.00;;;;;4.47;97.79;99089.38;6332351;20;1818885;-45
2023/12/21 02:18:03;;;;;;;;;4.00;3.00;;;;;4.49;97.88;99087.50;6314671;20;3439868;-47
2023/12/21 02:20:31;;;;;;;;;5.00;3.00;;;;;4.60;97.84;99095.84;6280896;20;2741995;-45
2023/12/21 02:23:03;;;;;;;;;5.25;4.50;;;;;4.71;97.21;99092.66;6333643;20;1825417;-45
2023/12/21 02:25:32;;;;;;;;;5.50;5.50;;;;;4.84;99.18;99098.28;6329320;20;1823338;-45
2023/12/21 02:28:01;;;;;;;;;6.00;5.00;;;;;4.96;99.29;99096.84;6335154;20;1817079;-46
2023/12/21 02:30:28;;;;;;;;;5.00;3.00;;;;;4.94;97.38;99104.03;6315997;20;2750315;-47
2023/12/21 02:32:57;;;;;;;;;3.00;3.00;;;;;4.95;95.00;99093.31;6333392;20;1821104;-48
2023/12/21 02:35:26;;;;;;;;;3.00;3.00;;;;;4.80;95.67;99096.72;6336183;20;1818730;-45
2023/12/21 02:37:54;;;;;;;;;3.00;3.00;;;;;4.88;94.67;99091.88;6316171;20;2737815;-43
2023/12/21 02:40:22;;;;;;;;;5.25;5.25;;;;;4.84;95.17;99090.28;6332342;20;1818195;-50
2023/12/21 02:42:51;;;;;;;;;5.50;2.75;;;;;4.91;94.27;99075.78;6331176;20;1811743;-50
2023/12/21 02:45:19;;;;;;;;;6.50;2.75;;;;;4.94;94.69;99083.59;6329951;20;1814868;-49
2023/12/21 02:47:47;;;;;;;;;6.50;2.50;;;;;4.95;94.07;99076.47;6316180;20;2754453;-50
2023/12/21 02:50:16;;;;;;;;;5.50;5.00;;;;;4.79;94.18;99079.00;6333546;20;1820183;-45
2023/12/21 02:52:44;;;;;;;;;5.00;5.00;;;;;4.84;95.34;99077.00;6314746;20;2754449;-47
2023/12/21 02:55:12;;;;;;;;;7.00;4.50;;;;;4.86;94.14;99084.91;6316695;20;2747283;-47
2023/12/21 02:57:40;;;;;;;;;8.00;8.00;;;;;4.96;93.94;99071.09;6309907;20;2756531;-46
2023/12/21 03:00:09;;;;;;;;;13.00;11.00;;;;;4.96;94.05;99076.41;6285340;20;2787769;-46
2023/12/21 03:02:36;;;;;;;;;6.00;6.00;;;;;5.01;93.13;99074.41;6279757;20;2745041;-49
2023/12/21 03:05:06;;;;;;;;;10.75;8.00;;;;;4.72;94.68;99073.13;6328910;20;1822228;-46
2023/12/21 03:07:34;;;;;;;;;6.50;6.00;;;;;4.68;95.70;99076.88;6329150;20;1819160;-46
2023/12/21 03:10:02;;;;;;;;;8.00;7.00;;;;;4.67;95.89;99076.97;6310326;20;2748247;-44
2023/12/21 03:12:32;;;;;;;;;15.40;12.00;;;;;4.49;97.59;99071.56;6335203;20;2786866;-46
2023/12/21 03:15:00;;;;;;;;;10.00;10.00;;;;;4.71;96.30;99066.06;6278771;20;2779465;-44
2023/12/21 03:17:28;;;;;;;;;14.00;10.00;;;;;4.67;95.71;99064.53;6283846;20;2780481;-45
2023/12/21 03:19:57;;;;;;;;;8.25;8.25;;;;;4.70;96.45;99068.84;6300017;20;1818094;-47
2023/12/21 03:22:26;;;;;;;;;8.75;8.75;;;;;4.66;96.31;99065.47;6330743;20;1819287;-47
2023/12/21 03:24:54;;;;;;;;;9.50;8.00;;;;;4.55;97.88;99075.72;6314018;20;2736804;-45
2023/12/21 03:27:22;;;;;;;;;12.00;11.00;;;;;4.78;97.05;99078.16;6310645;20;2790071;-46
2023/12/21 03:29:51;;;;;;;;;17.20;15.20;;;;;4.49;97.82;99076.03;6304303;20;2797169;-44
2023/12/21 03:32:19;;;;;;;;;10.00;10.00;;;;;4.47;98.48;99067.25;6281229;20;2796128;-48
2023/12/21 03:34:50;;;;;;;;;15.50;13.50;;;;;4.47;98.42;99068.09;6278887;20;2813834;-46
2023/12/21 03:37:17;;;;;;;;;13.50;10.00;;;;;4.26;98.61;99054.00;6279584;20;2789869;-45
2023/12/21 03:39:46;;;;;;;;;12.00;10.00;;;;;4.44;99.31;99056.75;6278002;20;2780632;-46
2023/12/21 03:42:14;;;;;;;;;9.00;7.25;;;;;4.42;98.30;99050.66;6296667;20;1824120;-45
2023/12/21 03:44:42;;;;;;;;;6.00;6.00;;;;;4.37;98.22;99053.50;6315782;20;2740933;-45
2023/12/21 03:47:10;;;;;;;;;8.75;7.25;;;;;4.37;98.35;99050.84;6329247;20;1819088;-45
2023/12/21 03:49:38;;;;;;;;;7.00;5.50;;;;;4.40;98.94;99054.25;6312315;20;2750271;-47
2023/12/21 03:52:07;;;;;;;;;7.50;6.00;;;;;4.34;98.84;99051.84;6327395;20;1819138;-46
2023/12/21 03:54:35;;;;;;;;;7.50;6.00;;;;;4.53;97.91;99061.63;6329341;20;1819160;-45
2023/12/21 03:57:04;;;;;;;;;7.00;7.00;;;;;4.37;99.56;99061.50;6330796;20;1805551;-46
2023/12/21 03:59:34;;;;;;;;;10.00;8.00;;;;;4.19;99.63;99052.59;6311437;20;2769144;-45
2023/12/21 04:02:04;;;;;;;;;8.25;7.00;;;;;4.08;100.00;99054.84;6300627;20;1820214;-45
2023/12/21 04:04:32;;;;;;;;;8.25;6.50;;;;;4.34;99.72;99051.84;6331542;20;1817612;-47
2023/12/21 04:07:00;;;;;;;;;9.00;9.00;;;;;4.40;98.82;99048.09;6314958;20;2752373;-44
2023/12/21 04:09:28;;;;;;;;;11.00;9.00;;;;;4.44;98.61;99052.31;6313439;20;2772669;-45
2023/12/21 04:11:56;;;;;;;;;7.00;7.00;;;;;4.52;97.33;99055.47;6299359;20;1819001;-45
2023/12/21 04:14:25;;;;;;;;;10.25;7.75;;;;;4.54;98.55;99063.38;6329920;20;1825383;-44
2023/12/21 04:16:53;;;;;;;;;6.50;6.50;;;;;4.47;97.78;99052.16;6330039;20;1808810;-47
2023/12/21 04:19:22;;;;;;;;;5.00;5.00;;;;;4.46;98.77;99045.13;6329342;20;1812773;-44
2023/12/21 04:21:50;;;;;;;;;8.25;5.75;;;;;4.43;98.37;99034.66;6331640;20;1823325;-46
2023/12/21 04:24:19;;;;;;;;;6.25;6.00;;;;;4.39;97.82;99033.06;6331427;20;1819073;-46
2023/12/21 04:26:47;;;;;;;;;11.00;6.00;;;;;4.46;98.92;99034.50;6313990;20;2786733;-46
2023/12/21 04:29:14;;;;;;;;;7.00;7.00;;;;;4.14;100.00;99022.72;6281654;20;2739868;-47
2023/12/21 04:31:44;;;;;;;;;11.00;10.00;;;;;4.22;100.00;99025.03;6297923;20;1817073;-46
2023/12/21 04:34:12;;;;;;;;;14.50;10.50;;;;;4.22;99.69;99025.03;6311647;20;2792047;-45
2023/12/21 04:36:41;;;;;;;;;5.75;3.00;;;;;4.38;99.53;99018.91;6300941;20;1804907;-47
2023/12/21 04:39:09;;;;;;;;;10.00;7.00;;;;;4.27;99.77;99018.56;6312157;20;2760732;-46
2023/12/21 04:41:37;;;;;;;;;5.75;2.00;;;;;4.43;98.95;99008.06;6296324;20;1813958;-45
2023/12/21 04:44:05;;;;;;;;;9.00;6.00;;;;;4.29;98.54;99013.16;6311393;20;2747231;-48
2023/12/21 04:46:36;;;;;;;;;8.67;6.00;;;;;4.36;99.73;99009.28;6353255;20;1803396;-49
2023/12/21 04:49:04;;;;;;;;;6.25;5.00;;;;;4.28;99.65;99008.78;6297918;20;1820967;-46
2023/12/21 04:51:33;;;;;;;;;10.25;5.25;;;;;4.42;98.29;99001.00;6330598;20;1816097;-46
2023/12/21 04:54:02;;;;;;;;;6.25;6.25;;;;;4.24;99.02;99013.38;6326384;20;1819240;-47
2023/12/21 04:56:32;;;;;;;;;8.33;7.17;;;;;4.27;100.00;98996.44;6352472;20;1803566;-47
2023/12/21 04:59:01;;;;;;;;;8.00;8.00;;;;;4.24;99.60;99001.88;6299053;20;1810685;-49
2023/12/21 05:01:30;;;;;;;;;7.00;7.00;;;;;3.97;100.00;98988.94;6331121;20;1807743;-50
2023/12/21 05:04:06;;;;;;;;;219.75;179.25;;;;;3.86;100.00;98992.09;6313880;20;4478418;-46
2023/12/21 05:06:35;;;;;;;;;89.33;68.33;;;;;4.11;100.00;98991.84;6282034;20;3658573;-44
2023/12/21 05:09:03;;;;;;;;;57.00;46.00;;;;;4.09;100.00;98993.69;6278286;20;2499351;-46
2023/12/21 05:11:33;;;;;;;;;44.67;29.00;;;;;3.92;100.00;98989.19;6283169;20;2870304;-46
2023/12/21 05:14:02;;;;;;;;;45.33;33.00;;;;;3.77;100.00;98992.53;6314579;20;3622162;-45
2023/12/21 05:16:31;;;;;;;;;30.50;20.50;;;;;3.84;100.00;98982.47;6313797;20;2854417;-46
2023/12/21 05:18:59;;;;;;;;;26.00;23.50;;;;;3.89;100.00;98983.97;6281156;20;2500266;-47
2023/12/21 05:21:27;;;;;;;;;19.00;17.00;;;;;3.78;100.00;98980.09;6286351;20;2821141;-47
2023/12/21 05:23:56;;;;;;;;;22.67;18.33;;;;;3.45;100.00;98985.97;6281711;20;3556518;-45
2023/12/21 05:26:23;;;;;;;;;9.00;9.00;;;;;3.75;100.00;98983.75;6285338;20;2748275;-45
2023/12/21 05:28:53;;;;;;;;;10.50;10.50;;;;;3.65;100.00;98978.00;6282164;20;2788012;-46
2023/12/21 05:31:25;;;;;;;;;8.75;8.75;;;;;3.53;100.00;98973.25;6303642;20;1813925;-45
2023/12/21 05:33:53;;;;;;;;;17.00;14.50;;;;;3.28;100.00;98966.34;6316125;20;2642622;-46
2023/12/21 05:36:24;;;;;;;;;21.00;17.00;;;;;3.41;100.00;98963.16;6315159;20;3552405;-46
2023/12/21 05:38:53;;;;;;;;;19.67;15.00;;;;;3.26;100.00;98970.84;6285660;20;3542043;-45
2023/12/21 05:41:22;;;;;;;;;17.00;15.67;;;;;2.96;100.00;98964.22;6316142;20;3559670;-46
2023/12/21 05:43:52;;;;;;;;;48.33;31.00;;;;;3.39;100.00;98963.22;6311777;20;3639864;-46
2023/12/21 05:46:20;;;;;;;;;24.33;17.33;;;;;3.33;100.00;98962.66;6315874;20;3592956;-46
2023/12/21 05:48:48;;;;;;;;;12.00;9.50;;;;;3.19;100.00;98961.47;6282428;20;2771139;-51
2023/12/21 05:51:16;;;;;;;;;14.50;13.00;;;;;2.96;100.00;98956.28;6278957;20;2793994;-49
2023/12/21 05:53:44;;;;;;;;;9.00;9.00;;;;;3.00;100.00;98960.50;6285707;20;2735851;-46
2023/12/21 05:56:12;;;;;;;;;17.50;10.00;;;;;2.82;100.00;98954.22;6314337;20;2791029;-47
2023/12/21 05:58:41;;;;;;;;;8.80;6.40;;;;;2.84;100.00;98953.22;6309693;20;2760203;-48
2023/12/21 06:01:09;;;;;;;;;14.00;14.00;;;;;2.92;100.00;98954.66;6312515;20;2789894;-47
2023/12/21 06:03:39;;;;;;;;;13.40;11.80;;;;;2.97;100.00;98960.63;6307121;20;2786772;-47
2023/12/21 06:06:08;;;;;;;;;42.00;33.50;;;;;3.01;100.00;98951.63;6284325;20;2855580;-46
2023/12/21 06:08:37;;;;;;;;;18.67;17.67;;;;;2.98;100.00;98959.72;6283864;20;3562750;-45
2023/12/21 06:11:06;;;;;;;;;35.50;29.00;;;;;2.98;100.00;98965.03;6312244;20;2851326;-46
2023/12/21 06:13:35;;;;;;;;;20.00;20.00;;;;;2.70;100.00;98958.22;6281162;20;2817112;-48
2023/12/21 06:16:11;;;;;;;;;17.20;17.00;;;;;2.82;100.00;98960.38;6303377;20;2830582;-45
2023/12/21 06:18:41;;;;;;;;;33.33;28.67;;;;;2.72;100.00;98964.31;6282675;20;3607602;-45
2023/12/21 06:21:11;;;;;;;;;88.33;59.67;;;;;2.55;100.00;98950.88;6282237;20;3665936;-45
2023/12/21 06:23:40;;;;;;;;;65.00;48.67;;;;;2.58;100.00;98948.09;6312723;20;2869111;-45
2023/12/21 06:26:08;;;;;;;;;35.00;31.00;;;;;2.62;100.00;98944.41;6313244;20;2500319;-45
2023/12/21 06:28:37;;;;;;;;;33.00;26.00;;;;;2.60;100.00;98943.63;6280517;20;2862159;-46
2023/12/21 06:31:07;;;;;;;;;37.50;32.50;;;;;2.79;100.00;98938.41;6280323;20;2847122;-46
2023/12/21 06:33:36;;;;;;;;;48.00;34.33;;;;;2.69;100.00;98932.66;6283957;20;3633970;-45
2023/12/21 06:36:06;;;;;;;;;38.33;32.33;;;;;2.72;100.00;98929.00;6313204;20;2855495;-45
2023/12/21 06:38:35;;;;;;;;;39.00;35.50;;;;;2.79;100.00;98939.28;6314321;20;2861776;-45
2023/12/21 06:41:05;;;;;;;;;54.33;40.00;;;;;2.59;100.00;98937.47;6280075;20;2883739;-48
2023/12/21 06:43:34;;;;;;;;;41.33;37.33;;;;;2.69;100.00;98937.94;6314753;20;2869123;-45
2023/12/21 06:46:04;;;;;;;;;53.33;42.00;;;;;2.88;100.00;98938.03;6311599;20;2868192;-45
2023/12/21 06:48:32;;;;;;;;;46.00;39.00;;;;;2.95;100.00;98943.91;6313066;20;2847182;-46
2023/12/21 06:51:02;;;;;;;;;53.33;43.00;;;;;3.15;100.00;98946.59;6280471;20;2872139;-46
2023/12/21 06:53:31;;;;;;;;;54.50;45.50;;;;;3.23;100.00;98941.81;6310207;20;2853607;-45
2023/12/21 06:56:01;;;;;;;;;56.33;41.67;;;;;3.18;100.00;98937.63;6281229;20;2881944;-45
2023/12/21 06:58:48;;;;;;;;;56.00;45.00;;;;;3.51;100.00;98933.50;6310633;20;2493106;-45
2023/12/21 07:01:18;;;;;;;;;57.00;43.00;;;;;3.55;100.00;98923.59;6281323;20;2866017;-45
2023/12/21 07:03:45;;;;;;;;;61.00;46.00;;;;;3.56;100.00;98920.03;6276897;20;2499275;-47
2023/12/21 07:06:13;;;;;;;;;53.50;44.50;;;;;3.49;100.00;98914.13;6281050;20;2500374;-47
2023/12/21 07:08:43;;;;;;;;;56.00;45.33;;;;;3.42;100.00;98917.13;6282250;20;2876329;-46
2023/12/21 07:11:12;;;;;;;;;57.00;46.00;;;;;3.68;100.00;98919.44;6311883;20;2857565;-48
2023/12/21 07:13:41;;;;;;;;;52.00;43.50;;;;;3.55;100.00;98926.25;6281873;20;2850268;-45
2023/12/21 07:16:12;;;;;;;;;70.67;58.00;;;;;3.40;100.00;98919.84;6280240;20;2876299;-46
2023/12/21 07:18:42;;;;;;;;;71.67;54.33;;;;;3.39;100.00;98922.56;6312485;20;3635698;-46
2023/12/21 07:21:13;;;;;;;;;78.00;59.00;;;;;3.65;100.00;98922.25;6311893;20;3635644;-50
2023/12/21 07:23:42;;;;;;;;;67.00;52.50;;;;;3.52;100.00;98924.59;6312988;20;2865905;-45
2023/12/21 07:26:11;;;;;;;;;65.00;52.00;;;;;3.52;100.00;98931.69;6280051;20;2870042;-46
2023/12/21 07:28:40;;;;;;;;;61.00;48.50;;;;;3.36;100.00;98943.94;6281642;20;2873223;-44
2023/12/21 07:31:11;;;;;;;;;70.00;54.50;;;;;3.45;100.00;98939.09;6277713;20;2880619;-47
2023/12/21 07:33:41;;;;;;;;;56.00;45.50;;;;;3.64;100.00;98930.31;6281958;20;2854485;-48
2023/12/21 07:36:10;;;;;;;;;50.50;45.00;;;;;3.87;100.00;98930.09;6280297;20;2857603;-45
2023/12/21 07:38:40;;;;;;;;;58.50;46.00;;;;;3.75;100.00;98925.34;6280014;20;2870098;-46
2023/12/21 07:41:10;;;;;;;;;57.00;46.00;;;;;3.56;100.00;98924.47;6278512;20;2569073;-45
2023/12/21 07:43:39;;;;;;;;;59.00;44.50;;;;;3.91;100.00;98934.31;6312968;20;2883982;-45
2023/12/21 07:46:13;;;;;;;;;58.00;45.00;;;;;3.69;100.00;98920.34;6276014;20;2853435;-47
2023/12/21 07:48:42;;;;;;;;;64.50;51.00;;;;;3.42;100.00;98917.13;6282371;20;2869042;-48
2023/12/21 07:51:11;;;;;;;;;62.50;47.00;;;;;3.48;100.00;98916.88;6277970;20;2857695;-46
2023/12/21 07:53:40;;;;;;;;;58.00;46.50;;;;;3.27;100.00;98910.72;6281953;20;2860813;-46
2023/12/21 07:56:09;;;;;;;;;57.33;46.00;;;;;3.33;100.00;98901.63;6279972;20;2855488;-47
2023/12/21 07:58:39;;;;;;;;;64.00;51.00;;;;;3.34;100.00;98898.03;6313681;20;2866943;-45
2023/12/21 08:01:09;;;;;;;;;83.33;58.67;;;;;3.59;100.00;98903.97;6309391;20;3658701;-45
2023/12/21 08:03:39;;;;;;;;;75.67;56.33;;;;;3.49;100.00;98900.00;6278180;20;3645037;-47
2023/12/21 08:06:08;;;;;;;;;60.00;49.00;;;;;3.13;100.00;98906.00;6310521;20;2858648;-46
2023/12/21 08:08:37;;;;;;;;;68.67;52.00;;;;;3.41;100.00;98895.03;6280770;20;2876390;-45
2023/12/21 08:11:16;;;;;;;;;72.67;53.00;;;;;3.30;100.00;98894.66;6310882;20;3630561;-49
2023/12/21 08:13:46;;;;;;;;;68.67;56.00;;;;;3.40;100.00;98890.66;6310938;20;2879595;-50
2023/12/21 08:16:15;;;;;;;;;63.00;50.00;;;;;3.45;100.00;98895.75;6311320;20;2879875;-46
2023/12/21 08:18:45;;;;;;;;;69.00;52.67;;;;;3.78;100.00;98897.81;6280111;20;2877488;-47
2023/12/21 08:21:14;;;;;;;;;52.67;43.00;;;;;3.85;100.00;98893.94;6307816;20;2863912;-46
2023/12/21 08:23:44;;;;;;;;;68.00;50.33;;;;;3.66;100.00;98888.59;6311685;20;2871279;-47
2023/12/21 08:26:14;;;;;;;;;65.00;51.33;;;;;3.54;100.00;98879.41;6307837;20;2870174;-47
2023/12/21 08:28:43;;;;;;;;;60.50;49.00;;;;;3.61;100.00;98880.88;6313093;20;2856570;-48
2023/12/21 08:31:22;;;;;;;;;61.00;44.50;;;;;3.62;100.00;98887.88;6277325;20;2853551;-45
2023/12/21 08:33:51;;;;;;;;;59.50;43.00;;;;;4.07;100.00;98891.97;6277327;20;2885792;-47
2023/12/21 08:36:21;;;;;;;;;59.00;46.50;;;;;3.94;100.00;98893.47;6278509;20;2869008;-45
2023/12/21 08:38:50;;;;;;;;;60.50;48.00;;;;;4.12;100.00;98895.25;6286087;20;2865926;-49
2023/12/21 08:41:18;;;;;;;;;64.00;48.50;;;;;3.74;100.00;98903.25;6285871;20;2879441;-48
2023/12/21 08:43:48;;;;;;;;;66.00;50.33;;;;;3.90;100.00;98902.53;6285520;20;2884671;-45
2023/12/21 08:46:16;;;;;;;;;131.50;108.50;;;;;3.87;100.00;98910.63;6309466;20;1956758;-46
2023/12/21 08:48:46;;;;;;;;;84.67;64.00;;;;;3.82;100.00;98904.66;6286350;20;3634626;-45
2023/12/21 08:51:16;;;;;;;;;70.00;51.00;;;;;3.76;100.00;98908.47;6314702;20;2886846;-45
2023/12/21 08:53:48;;;;;;;;;65.33;50.33;;;;;3.90;100.00;98902.53;6314492;20;3617049;-46
2023/12/21 08:56:17;;;;;;;;;88.00;66.00;;;;;3.66;100.00;98889.47;6315979;20;3645484;-46
2023/12/21 08:58:47;;;;;;;;;70.33;58.33;;;;;4.06;100.00;98886.75;6318241;20;2870110;-46
2023/12/21 09:01:17;;;;;;;;;126.00;96.33;;;;;3.88;100.00;98891.13;6318176;20;3711762;-48
2023/12/21 09:03:47;;;;;;;;;94.33;72.33;;;;;4.32;100.00;98896.13;6283504;20;3652784;-47
2023/12/21 09:06:15;;;;;;;;;59.00;46.50;;;;;4.51;100.00;98880.97;6317906;20;2855514;-45
2023/12/21 09:08:45;;;;;;;;;59.33;41.67;;;;;4.44;100.00;98882.19;6287529;20;3628400;-45
2023/12/21 09:11:15;;;;;;;;;64.00;48.67;;;;;4.37;100.00;98896.72;6313330;20;2869437;-51
2023/12/21 09:13:43;;;;;;;;;57.50;44.50;;;;;4.02;100.00;98880.69;6316460;20;2848196;-46
2023/12/21 09:16:15;;;;;;;;;50.67;40.33;;;;;4.46;100.00;98877.69;6286002;20;2881567;-51
2023/12/21 09:18:45;;;;;;;;;52.50;44.00;;;;;4.15;100.00;98876.50;6319034;20;2858632;-45
2023/12/21 09:21:14;;;;;;;;;52.50;44.50;;;;;4.23;100.00;98883.25;6285047;20;2843019;-47
2023/12/21 09:23:42;;;;;;;;;63.00;44.50;;;;;4.76;100.00;98872.59;6283849;20;2491964;-46
2023/12/21 09:26:12;;;;;;;;;63.00;46.67;;;;;4.39;100.00;98855.84;6285432;20;2874344;-45
2023/12/21 09:28:41;;;;;;;;;58.00;47.00;;;;;4.25;100.00;98860.13;6317800;20;2857605;-46
2023/12/21 09:31:10;;;;;;;;;58.00;45.50;;;;;4.40;100.00;98857.59;6282676;20;2847452;-48
2023/12/21 09:33:40;;;;;;;;;61.67;47.67;;;;;4.28;100.00;98838.72;6285149;20;3626304;-45
2023/12/21 09:36:10;;;;;;;;;58.00;43.33;;;;;4.43;100.00;98832.66;6318702;20;2864974;-45
2023/12/21 09:38:41;;;;;;;;;57.00;47.67;;;;;4.18;100.00;98833.84;6315031;20;2871127;-46
2023/12/21 09:41:11;;;;;;;;;58.33;43.67;;;;;4.40;100.00;98819.53;6315412;20;3644022;-45
2023/12/21 09:43:42;;;;;;;;;55.50;42.00;;;;;4.45;100.00;98828.13;6314959;20;2863867;-48
2023/12/21 09:46:13;;;;;;;;;46.50;38.00;;;;;4.36;100.00;98820.59;6282695;20;2500307;-47
2023/12/21 09:48:43;;;;;;;;;63.33;49.33;;;;;4.45;100.00;98814.84;6281193;20;2885774;-46
2023/12/21 09:51:17;;;;;;;;;70.33;57.67;;;;;4.39;100.00;98817.78;6314201;20;2881628;-47
2023/12/21 09:53:47;;;;;;;;;69.33;52.00;;;;;4.75;100.00;98822.19;6317876;20;3631635;-47
2023/12/21 09:56:20;;;;;;;;;77.33;57.00;;;;;4.91;100.00;98807.13;6313457;20;3641951;-45
2023/12/21 09:58:49;;;;;;;;;56.50;43.50;;;;;4.59;100.00;98801.69;6314834;20;2850329;-46
2023/12/21 10:01:18;;;;;;;;;66.00;45.00;;;;;4.75;100.00;98798.25;6283514;20;2821118;-45
2023/12/21 10:03:47;;;;;;;;;45.67;39.67;;;;;5.08;100.00;98790.25;6287865;20;2855527;-45
2023/12/21 10:06:16;;;;;;;;;50.00;39.00;;;;;5.07;100.00;98777.91;6316468;20;2865943;-46
2023/12/21 10:08:45;;;;;;;;;44.50;39.50;;;;;5.05;100.00;98771.81;6282469;20;2875316;-47
2023/12/21 10:11:18;;;;;;;;;46.00;40.50;;;;;5.01;100.00;98767.63;6283784;20;2850368;-44
2023/12/21 10:13:48;;;;;;;;;52.50;45.00;;;;;5.21;100.00;98756.75;6283748;20;2853446;-49
2023/12/21 10:16:17;;;;;;;;;43.00;38.00;;;;;5.05;100.00;98751.41;6283081;20;2860732;-46
2023/12/21 10:18:46;;;;;;;;;41.00;36.00;;;;;4.83;100.00;98754.34;6281906;20;2862835;-49
2023/12/21 10:21:17;;;;;;;;;47.67;39.67;;;;;4.97;100.00;98748.28;6283301;20;2862846;-45
2023/12/21 10:23:46;;;;;;;;;36.33;32.67;;;;;5.34;100.00;98742.75;6316705;20;3597160;-46
2023/12/21 10:26:15;;;;;;;;;33.00;31.50;;;;;5.27;100.00;98739.59;6316092;20;2857103;-46
2023/12/21 10:28:47;;;;;;;;;36.67;33.67;;;;;5.26;100.00;98727.22;6282063;20;3599225;-45
2023/12/21 10:31:16;;;;;;;;;34.67;32.67;;;;;5.21;100.00;98715.97;6319682;20;3602493;-47
2023/12/21 10:33:46;;;;;;;;;37.33;34.67;;;;;5.42;100.00;98705.91;6282478;20;2873410;-48
2023/12/21 10:36:15;;;;;;;;;38.67;31.00;;;;;5.37;100.00;98706.19;6320933;20;3614844;-46
2023/12/21 10:38:45;;;;;;;;;36.67;32.33;;;;;5.75;100.00;98689.84;6286220;20;3604457;-46
2023/12/21 10:41:19;;;;;;;;;37.00;30.33;;;;;5.48;100.00;98677.16;6316035;20;3611100;-48
2023/12/21 10:43:48;;;;;;;;;29.00;28.00;;;;;5.15;100.00;98661.28;6317767;20;3579444;-49
2023/12/21 10:46:17;;;;;;;;;40.00;33.33;;;;;5.52;100.00;98653.88;6312110;20;2858681;-50
2023/12/21 10:48:49;;;;;;;;;37.67;30.33;;;;;5.48;100.00;98650.53;6319316;20;3609724;-49
2023/12/21 10:51:19;;;;;;;;;40.00;35.67;;;;;5.42;100.00;98650.88;6281000;20;2867125;-48
2023/12/21 10:53:50;;;;;;;;;34.00;30.00;;;;;5.91;100.00;98645.34;6316024;20;2852393;-48
2023/12/21 10:56:23;;;;;;;;;48.00;36.00;;;;;6.07;100.00;98634.69;6283023;20;3613803;-49
2023/12/21 10:58:55;;;;;;;;;39.67;35.67;;;;;5.86;100.00;98625.28;6315295;20;3590092;-48
2023/12/21 11:01:26;;;;;;;;;33.67;29.67;;;;;5.83;100.00;98610.34;6282489;20;2850427;-45
2023/12/21 11:04:01;;;;;;;;;48.67;39.67;;;;;5.83;100.00;98610.34;6312309;20;2849351;-49
2023/12/21 11:06:33;;;;;;;;;35.00;32.67;;;;;5.81;100.00;98590.06;6317015;20;3603381;-47
2023/12/21 11:09:06;;;;;;;;;38.33;33.00;;;;;5.94;100.00;98578.59;6282454;20;2867140;-46
2023/12/21 11:11:36;;;;;;;;;37.67;35.00;;;;;5.92;100.00;98580.50;6315684;20;3614901;-46
2023/12/21 11:14:05;;;;;;;;;37.00;34.50;;;;;5.78;100.00;98585.78;6284720;20;2870083;-50
2023/12/21 11:16:50;;;;;;;;;41.00;30.00;;;;;5.78;100.00;98575.13;6281792;20;2865899;-45
2023/12/21 11:19:33;;;;;;;;;41.00;33.00;;;;;6.12;100.00;98568.63;6282203;20;2870256;-46